sensor_id;sensor_type;location;lat;lon;timestamp;P1;durP1;ratioP1;P2;durP2;ratioP2
72301;SDS011;73902;52.234;5.186;2024-02-26T00:02:00;8.60;;;3.28;;
72301;SDS011;73902;52.234;5.186;2024-02-26T00:04:26;8.57;;;3.20;;
72301;SDS011;73902;52.234;5.186;2024-02-26T00:06:52;7.53;;;3.05;;
72301;SDS011;73902;52.234;5.186;2024-02-26T00:09:19;9.20;;;2.95;;
72301;SDS011;73902;52.234;5.186;2024-02-26T00:11:45;9.30;;;3.50;;
72301;SDS011;73902;52.234;5.186;2024-02-26T00:14:11;7.47;;;3.00;;
72301;SDS011;73902;52.234;5.186;2024-02-26T00:16:39;6.90;;;3.20;;
72301;SDS011;73902;52.234;5.186;2024-02-26T00:19:06;8.07;;;3.17;;
72301;SDS011;73902;52.234;5.186;2024-02-26T00:21:32;6.85;;;3.22;;
72301;SDS011;73902;52.234;5.186;2024-02-26T00:23:58;8.50;;;3.70;;
72301;SDS011;73902;52.234;5.186;2024-02-26T00:26:24;8.30;;;3.10;;
72301;SDS011;73902;52.234;5.186;2024-02-26T00:28:50;7.65;;;3.80;;
72301;SDS011;73902;52.234;5.186;2024-02-26T00:31:16;7.93;;;3.38;;
72301;SDS011;73902;52.234;5.186;2024-02-26T00:33:42;8.68;;;3.70;;
72301;SDS011;73902;52.234;5.186;2024-02-26T00:36:09;8.50;;;3.75;;
72301;SDS011;73902;52.234;5.186;2024-02-26T00:38:35;10.50;;;4.05;;
72301;SDS011;73902;52.234;5.186;2024-02-26T00:41:01;10.48;;;4.47;;
72301;SDS011;73902;52.234;5.186;2024-02-26T00:43:27;9.43;;;4.00;;
72301;SDS011;73902;52.234;5.186;2024-02-26T00:45:53;9.27;;;4.03;;
72301;SDS011;73902;52.234;5.186;2024-02-26T00:48:19;9.20;;;4.38;;
72301;SDS011;73902;52.234;5.186;2024-02-26T00:50:45;8.35;;;3.17;;
72301;SDS011;73902;52.234;5.186;2024-02-26T00:53:11;12.20;;;3.85;;
72301;SDS011;73902;52.234;5.186;2024-02-26T00:55:37;9.57;;;4.20;;
72301;SDS011;73902;52.234;5.186;2024-02-26T00:58:03;11.70;;;4.15;;
72301;SDS011;73902;52.234;5.186;2024-02-26T01:00:29;10.15;;;4.13;;
72301;SDS011;73902;52.234;5.186;2024-02-26T01:02:55;11.93;;;4.13;;
72301;SDS011;73902;52.234;5.186;2024-02-26T01:05:21;8.95;;;3.88;;
72301;SDS011;73902;52.234;5.186;2024-02-26T01:07:47;10.88;;;4.80;;
72301;SDS011;73902;52.234;5.186;2024-02-26T01:10:13;10.63;;;4.55;;
72301;SDS011;73902;52.234;5.186;2024-02-26T01:12:39;11.02;;;4.40;;
72301;SDS011;73902;52.234;5.186;2024-02-26T01:15:05;9.40;;;4.10;;
72301;SDS011;73902;52.234;5.186;2024-02-26T01:17:32;10.63;;;4.75;;
72301;SDS011;73902;52.234;5.186;2024-02-26T01:19:58;12.13;;;5.10;;
72301;SDS011;73902;52.234;5.186;2024-02-26T01:22:24;10.57;;;4.38;;
72301;SDS011;73902;52.234;5.186;2024-02-26T01:24:50;9.07;;;4.50;;
72301;SDS011;73902;52.234;5.186;2024-02-26T01:27:16;10.38;;;4.68;;
72301;SDS011;73902;52.234;5.186;2024-02-26T01:29:42;12.52;;;5.25;;
72301;SDS011;73902;52.234;5.186;2024-02-26T01:32:08;12.27;;;5.55;;
72301;SDS011;73902;52.234;5.186;2024-02-26T01:34:34;11.77;;;5.25;;
72301;SDS011;73902;52.234;5.186;2024-02-26T01:37:02;10.80;;;5.00;;
72301;SDS011;73902;52.234;5.186;2024-02-26T01:39:28;12.77;;;4.97;;
72301;SDS011;73902;52.234;5.186;2024-02-26T01:41:55;13.68;;;5.72;;
72301;SDS011;73902;52.234;5.186;2024-02-26T01:44:21;13.88;;;5.95;;
72301;SDS011;73902;52.234;5.186;2024-02-26T01:46:47;15.30;;;6.15;;
72301;SDS011;73902;52.234;5.186;2024-02-26T01:49:13;11.18;;;5.25;;
72301;SDS011;73902;52.234;5.186;2024-02-26T01:51:41;11.25;;;5.25;;
72301;SDS011;73902;52.234;5.186;2024-02-26T01:54:08;12.60;;;5.50;;
72301;SDS011;73902;52.234;5.186;2024-02-26T01:56:34;15.38;;;5.93;;
72301;SDS011;73902;52.234;5.186;2024-02-26T01:59:01;10.98;;;4.85;;
72301;SDS011;73902;52.234;5.186;2024-02-26T02:01:27;11.50;;;5.18;;
72301;SDS011;73902;52.234;5.186;2024-02-26T02:03:56;13.82;;;6.15;;
72301;SDS011;73902;52.234;5.186;2024-02-26T02:06:23;12.13;;;5.53;;
72301;SDS011;73902;52.234;5.186;2024-02-26T02:08:49;11.45;;;5.03;;
72301;SDS011;73902;52.234;5.186;2024-02-26T02:11:16;11.45;;;5.13;;
72301;SDS011;73902;52.234;5.186;2024-02-26T02:13:42;12.10;;;5.65;;
72301;SDS011;73902;52.234;5.186;2024-02-26T02:16:08;13.13;;;5.13;;
72301;SDS011;73902;52.234;5.186;2024-02-26T02:18:34;14.52;;;5.85;;
72301;SDS011;73902;52.234;5.186;2024-02-26T02:21:01;14.55;;;6.07;;
72301;SDS011;73902;52.234;5.186;2024-02-26T02:23:27;14.80;;;5.88;;
72301;SDS011;73902;52.234;5.186;2024-02-26T02:25:53;14.43;;;5.25;;
72301;SDS011;73902;52.234;5.186;2024-02-26T02:28:20;12.65;;;5.82;;
72301;SDS011;73902;52.234;5.186;2024-02-26T02:30:46;13.07;;;5.53;;
72301;SDS011;73902;52.234;5.186;2024-02-26T02:33:12;11.90;;;5.70;;
72301;SDS011;73902;52.234;5.186;2024-02-26T02:35:40;12.63;;;5.55;;
72301;SDS011;73902;52.234;5.186;2024-02-26T02:38:06;12.38;;;5.35;;
72301;SDS011;73902;52.234;5.186;2024-02-26T02:40:32;13.15;;;5.28;;
72301;SDS011;73902;52.234;5.186;2024-02-26T02:42:58;15.35;;;5.15;;
72301;SDS011;73902;52.234;5.186;2024-02-26T02:45:25;13.93;;;6.03;;
72301;SDS011;73902;52.234;5.186;2024-02-26T02:47:51;13.23;;;6.18;;
72301;SDS011;73902;52.234;5.186;2024-02-26T02:50:17;11.15;;;5.05;;
72301;SDS011;73902;52.234;5.186;2024-02-26T02:52:43;11.60;;;5.20;;
72301;SDS011;73902;52.234;5.186;2024-02-26T02:55:09;13.95;;;5.57;;
72301;SDS011;73902;52.234;5.186;2024-02-26T02:57:35;13.23;;;6.47;;
72301;SDS011;73902;52.234;5.186;2024-02-26T03:00:06;12.65;;;4.97;;
72301;SDS011;73902;52.234;5.186;2024-02-26T03:02:32;12.38;;;5.57;;
72301;SDS011;73902;52.234;5.186;2024-02-26T03:05:00;15.02;;;5.60;;
72301;SDS011;73902;52.234;5.186;2024-02-26T03:07:27;14.07;;;5.55;;
72301;SDS011;73902;52.234;5.186;2024-02-26T03:09:53;12.82;;;5.80;;
72301;SDS011;73902;52.234;5.186;2024-02-26T03:12:19;13.77;;;6.40;;
72301;SDS011;73902;52.234;5.186;2024-02-26T03:14:45;15.10;;;6.20;;
72301;SDS011;73902;52.234;5.186;2024-02-26T03:17:11;13.25;;;5.07;;
72301;SDS011;73902;52.234;5.186;2024-02-26T03:19:37;12.30;;;5.55;;
72301;SDS011;73902;52.234;5.186;2024-02-26T03:22:03;15.95;;;6.68;;
72301;SDS011;73902;52.234;5.186;2024-02-26T03:24:29;16.38;;;6.68;;
72301;SDS011;73902;52.234;5.186;2024-02-26T03:26:55;13.75;;;5.57;;
72301;SDS011;73902;52.234;5.186;2024-02-26T03:29:21;14.93;;;5.90;;
72301;SDS011;73902;52.234;5.186;2024-02-26T03:31:47;15.05;;;6.35;;
72301;SDS011;73902;52.234;5.186;2024-02-26T03:34:13;13.05;;;5.70;;
72301;SDS011;73902;52.234;5.186;2024-02-26T03:36:40;13.73;;;5.90;;
72301;SDS011;73902;52.234;5.186;2024-02-26T03:39:06;15.07;;;6.13;;
72301;SDS011;73902;52.234;5.186;2024-02-26T03:41:33;13.45;;;5.55;;
72301;SDS011;73902;52.234;5.186;2024-02-26T03:43:59;14.95;;;6.15;;
72301;SDS011;73902;52.234;5.186;2024-02-26T03:46:25;13.88;;;5.88;;
72301;SDS011;73902;52.234;5.186;2024-02-26T03:48:51;16.45;;;6.55;;
72301;SDS011;73902;52.234;5.186;2024-02-26T03:51:17;11.60;;;5.53;;
72301;SDS011;73902;52.234;5.186;2024-02-26T03:53:44;14.85;;;6.93;;
72301;SDS011;73902;52.234;5.186;2024-02-26T03:56:11;13.98;;;6.18;;
72301;SDS011;73902;52.234;5.186;2024-02-26T03:58:37;16.10;;;6.30;;
72301;SDS011;73902;52.234;5.186;2024-02-26T04:01:03;14.50;;;6.15;;
72301;SDS011;73902;52.234;5.186;2024-02-26T04:03:29;17.73;;;6.65;;
72301;SDS011;73902;52.234;5.186;2024-02-26T04:05:55;16.15;;;6.03;;
72301;SDS011;73902;52.234;5.186;2024-02-26T04:08:21;13.48;;;5.50;;
72301;SDS011;73902;52.234;5.186;2024-02-26T04:10:47;13.50;;;5.53;;
72301;SDS011;73902;52.234;5.186;2024-02-26T04:13:13;13.38;;;5.43;;
72301;SDS011;73902;52.234;5.186;2024-02-26T04:15:39;18.55;;;6.35;;
72301;SDS011;73902;52.234;5.186;2024-02-26T04:18:06;13.10;;;5.38;;
72301;SDS011;73902;52.234;5.186;2024-02-26T04:20:32;16.95;;;6.80;;
72301;SDS011;73902;52.234;5.186;2024-02-26T04:22:58;14.05;;;6.00;;
72301;SDS011;73902;52.234;5.186;2024-02-26T04:25:24;13.32;;;5.13;;
72301;SDS011;73902;52.234;5.186;2024-02-26T04:27:50;14.50;;;5.63;;
72301;SDS011;73902;52.234;5.186;2024-02-26T04:30:16;14.15;;;5.85;;
72301;SDS011;73902;52.234;5.186;2024-02-26T04:32:43;13.07;;;5.63;;
72301;SDS011;73902;52.234;5.186;2024-02-26T04:35:09;13.18;;;5.50;;
72301;SDS011;73902;52.234;5.186;2024-02-26T04:37:35;14.52;;;5.82;;
72301;SDS011;73902;52.234;5.186;2024-02-26T04:40:01;14.00;;;6.72;;
72301;SDS011;73902;52.234;5.186;2024-02-26T04:42:27;14.35;;;5.50;;
72301;SDS011;73902;52.234;5.186;2024-02-26T04:44:54;15.38;;;6.35;;
72301;SDS011;73902;52.234;5.186;2024-02-26T04:47:20;15.30;;;5.68;;
72301;SDS011;73902;52.234;5.186;2024-02-26T04:49:49;15.02;;;5.97;;
72301;SDS011;73902;52.234;5.186;2024-02-26T04:52:16;18.42;;;6.57;;
72301;SDS011;73902;52.234;5.186;2024-02-26T04:54:42;15.65;;;6.68;;
72301;SDS011;73902;52.234;5.186;2024-02-26T04:57:08;18.08;;;6.60;;
72301;SDS011;73902;52.234;5.186;2024-02-26T04:59:34;14.70;;;6.13;;
72301;SDS011;73902;52.234;5.186;2024-02-26T05:02:00;16.15;;;6.57;;
72301;SDS011;73902;52.234;5.186;2024-02-26T05:04:26;16.00;;;6.22;;
72301;SDS011;73902;52.234;5.186;2024-02-26T05:06:52;14.25;;;5.55;;
72301;SDS011;73902;52.234;5.186;2024-02-26T05:09:18;16.95;;;6.47;;
72301;SDS011;73902;52.234;5.186;2024-02-26T05:11:45;20.33;;;8.20;;
72301;SDS011;73902;52.234;5.186;2024-02-26T05:14:11;17.00;;;5.95;;
72301;SDS011;73902;52.234;5.186;2024-02-26T05:16:37;15.05;;;6.15;;
72301;SDS011;73902;52.234;5.186;2024-02-26T05:19:03;16.15;;;6.13;;
72301;SDS011;73902;52.234;5.186;2024-02-26T05:21:30;16.52;;;6.90;;
72301;SDS011;73902;52.234;5.186;2024-02-26T05:23:56;16.92;;;7.10;;
72301;SDS011;73902;52.234;5.186;2024-02-26T05:26:23;20.17;;;7.20;;
72301;SDS011;73902;52.234;5.186;2024-02-26T05:28:49;15.40;;;6.90;;
72301;SDS011;73902;52.234;5.186;2024-02-26T05:31:15;19.88;;;7.93;;
72301;SDS011;73902;52.234;5.186;2024-02-26T05:33:41;19.00;;;7.03;;
72301;SDS011;73902;52.234;5.186;2024-02-26T05:36:08;20.60;;;8.40;;
72301;SDS011;73902;52.234;5.186;2024-02-26T05:38:34;17.80;;;7.25;;
72301;SDS011;73902;52.234;5.186;2024-02-26T05:41:00;20.98;;;8.23;;
72301;SDS011;73902;52.234;5.186;2024-02-26T05:43:26;18.95;;;7.97;;
72301;SDS011;73902;52.234;5.186;2024-02-26T05:45:53;20.85;;;8.38;;
72301;SDS011;73902;52.234;5.186;2024-02-26T05:48:19;18.88;;;7.85;;
72301;SDS011;73902;52.234;5.186;2024-02-26T05:50:46;19.60;;;6.95;;
72301;SDS011;73902;52.234;5.186;2024-02-26T05:53:12;20.20;;;8.32;;
72301;SDS011;73902;52.234;5.186;2024-02-26T05:55:38;15.52;;;5.88;;
72301;SDS011;73902;52.234;5.186;2024-02-26T05:58:04;20.45;;;8.00;;
72301;SDS011;73902;52.234;5.186;2024-02-26T06:00:30;20.33;;;8.48;;
72301;SDS011;73902;52.234;5.186;2024-02-26T06:02:56;20.33;;;8.32;;
72301;SDS011;73902;52.234;5.186;2024-02-26T06:05:23;21.63;;;8.63;;
72301;SDS011;73902;52.234;5.186;2024-02-26T06:07:49;24.83;;;8.77;;
72301;SDS011;73902;52.234;5.186;2024-02-26T06:10:15;23.45;;;8.93;;
72301;SDS011;73902;52.234;5.186;2024-02-26T06:12:41;22.25;;;8.93;;
72301;SDS011;73902;52.234;5.186;2024-02-26T06:15:07;24.20;;;9.13;;
72301;SDS011;73902;52.234;5.186;2024-02-26T06:17:34;21.67;;;8.82;;
72301;SDS011;73902;52.234;5.186;2024-02-26T06:20:00;24.30;;;9.18;;
72301;SDS011;73902;52.234;5.186;2024-02-26T06:22:26;22.95;;;9.30;;
72301;SDS011;73902;52.234;5.186;2024-02-26T06:24:52;23.05;;;9.38;;
72301;SDS011;73902;52.234;5.186;2024-02-26T06:27:18;24.67;;;10.25;;
72301;SDS011;73902;52.234;5.186;2024-02-26T06:29:46;26.27;;;9.55;;
72301;SDS011;73902;52.234;5.186;2024-02-26T06:32:13;20.40;;;8.77;;
72301;SDS011;73902;52.234;5.186;2024-02-26T06:34:39;26.63;;;11.15;;
72301;SDS011;73902;52.234;5.186;2024-02-26T06:37:06;23.40;;;9.43;;
72301;SDS011;73902;52.234;5.186;2024-02-26T06:39:32;26.35;;;10.60;;
72301;SDS011;73902;52.234;5.186;2024-02-26T06:41:58;25.00;;;10.25;;
72301;SDS011;73902;52.234;5.186;2024-02-26T06:44:27;31.73;;;12.60;;
72301;SDS011;73902;52.234;5.186;2024-02-26T06:47:00;27.83;;;11.77;;
72301;SDS011;73902;52.234;5.186;2024-02-26T06:49:27;31.75;;;11.63;;
72301;SDS011;73902;52.234;5.186;2024-02-26T06:51:53;29.17;;;12.55;;
72301;SDS011;73902;52.234;5.186;2024-02-26T06:54:19;28.83;;;11.02;;
72301;SDS011;73902;52.234;5.186;2024-02-26T06:56:46;30.25;;;13.02;;
72301;SDS011;73902;52.234;5.186;2024-02-26T06:59:12;29.55;;;12.48;;
72301;SDS011;73902;52.234;5.186;2024-02-26T07:01:40;30.33;;;11.85;;
72301;SDS011;73902;52.234;5.186;2024-02-26T07:04:06;30.40;;;11.45;;
72301;SDS011;73902;52.234;5.186;2024-02-26T07:06:32;27.48;;;11.77;;
72301;SDS011;73902;52.234;5.186;2024-02-26T07:08:58;29.17;;;12.77;;
72301;SDS011;73902;52.234;5.186;2024-02-26T07:11:24;25.02;;;11.38;;
72301;SDS011;73902;52.234;5.186;2024-02-26T07:13:50;24.75;;;10.32;;
72301;SDS011;73902;52.234;5.186;2024-02-26T07:16:16;25.70;;;9.85;;
72301;SDS011;73902;52.234;5.186;2024-02-26T07:18:42;22.27;;;9.23;;
72301;SDS011;73902;52.234;5.186;2024-02-26T07:21:11;21.23;;;9.43;;
72301;SDS011;73902;52.234;5.186;2024-02-26T07:23:37;25.83;;;11.25;;
72301;SDS011;73902;52.234;5.186;2024-02-26T07:26:03;25.15;;;10.50;;
72301;SDS011;73902;52.234;5.186;2024-02-26T07:28:29;20.70;;;8.75;;
72301;SDS011;73902;52.234;5.186;2024-02-26T07:30:55;19.10;;;8.13;;
72301;SDS011;73902;52.234;5.186;2024-02-26T07:33:21;22.67;;;8.73;;
72301;SDS011;73902;52.234;5.186;2024-02-26T07:35:47;20.92;;;8.95;;
72301;SDS011;73902;52.234;5.186;2024-02-26T07:38:14;23.63;;;9.85;;
72301;SDS011;73902;52.234;5.186;2024-02-26T07:40:40;20.20;;;8.55;;
72301;SDS011;73902;52.234;5.186;2024-02-26T07:43:06;18.60;;;7.80;;
72301;SDS011;73902;52.234;5.186;2024-02-26T07:45:32;20.30;;;8.88;;
72301;SDS011;73902;52.234;5.186;2024-02-26T07:47:58;17.83;;;7.82;;
72301;SDS011;73902;52.234;5.186;2024-02-26T07:50:24;18.73;;;8.60;;
72301;SDS011;73902;52.234;5.186;2024-02-26T07:52:50;18.75;;;8.73;;
72301;SDS011;73902;52.234;5.186;2024-02-26T07:55:18;19.08;;;8.07;;
72301;SDS011;73902;52.234;5.186;2024-02-26T07:57:46;22.40;;;9.20;;
72301;SDS011;73902;52.234;5.186;2024-02-26T08:00:13;17.05;;;8.20;;
72301;SDS011;73902;52.234;5.186;2024-02-26T08:02:41;15.93;;;5.90;;
72301;SDS011;73902;52.234;5.186;2024-02-26T08:05:08;17.38;;;6.53;;
72301;SDS011;73902;52.234;5.186;2024-02-26T08:07:34;18.85;;;6.88;;
72301;SDS011;73902;52.234;5.186;2024-02-26T08:10:00;17.02;;;7.25;;
72301;SDS011;73902;52.234;5.186;2024-02-26T08:12:26;14.43;;;5.95;;
72301;SDS011;73902;52.234;5.186;2024-02-26T08:14:52;17.63;;;5.90;;
72301;SDS011;73902;52.234;5.186;2024-02-26T08:17:18;13.25;;;5.53;;
72301;SDS011;73902;52.234;5.186;2024-02-26T08:19:44;19.10;;;7.18;;
72301;SDS011;73902;52.234;5.186;2024-02-26T08:22:10;14.60;;;6.00;;
72301;SDS011;73902;52.234;5.186;2024-02-26T08:24:43;16.13;;;6.07;;
72301;SDS011;73902;52.234;5.186;2024-02-26T08:27:09;15.07;;;6.30;;
72301;SDS011;73902;52.234;5.186;2024-02-26T08:29:35;14.90;;;6.60;;
72301;SDS011;73902;52.234;5.186;2024-02-26T08:32:01;14.48;;;6.10;;
72301;SDS011;73902;52.234;5.186;2024-02-26T08:34:27;15.48;;;5.70;;
72301;SDS011;73902;52.234;5.186;2024-02-26T08:36:53;15.10;;;5.72;;
72301;SDS011;73902;52.234;5.186;2024-02-26T08:39:19;14.77;;;5.35;;
72301;SDS011;73902;52.234;5.186;2024-02-26T08:41:45;14.80;;;5.80;;
72301;SDS011;73902;52.234;5.186;2024-02-26T08:44:11;12.93;;;5.68;;
72301;SDS011;73902;52.234;5.186;2024-02-26T08:46:38;14.10;;;5.00;;
72301;SDS011;73902;52.234;5.186;2024-02-26T08:49:03;11.38;;;4.75;;
72301;SDS011;73902;52.234;5.186;2024-02-26T08:51:29;11.65;;;4.22;;
72301;SDS011;73902;52.234;5.186;2024-02-26T08:53:56;13.45;;;5.20;;
72301;SDS011;73902;52.234;5.186;2024-02-26T08:56:22;12.30;;;5.40;;
72301;SDS011;73902;52.234;5.186;2024-02-26T08:58:48;13.38;;;4.78;;
72301;SDS011;73902;52.234;5.186;2024-02-26T09:01:15;11.00;;;4.55;;
72301;SDS011;73902;52.234;5.186;2024-02-26T09:03:41;13.18;;;4.78;;
72301;SDS011;73902;52.234;5.186;2024-02-26T09:06:08;10.95;;;4.20;;
72301;SDS011;73902;52.234;5.186;2024-02-26T09:08:34;8.95;;;3.83;;
72301;SDS011;73902;52.234;5.186;2024-02-26T09:11:03;12.82;;;4.50;;
72301;SDS011;73902;52.234;5.186;2024-02-26T09:13:29;11.00;;;4.63;;
72301;SDS011;73902;52.234;5.186;2024-02-26T09:15:55;10.25;;;4.15;;
72301;SDS011;73902;52.234;5.186;2024-02-26T09:18:21;9.63;;;3.22;;
72301;SDS011;73902;52.234;5.186;2024-02-26T09:20:47;9.35;;;3.47;;
72301;SDS011;73902;52.234;5.186;2024-02-26T09:23:13;9.27;;;3.50;;
72301;SDS011;73902;52.234;5.186;2024-02-26T09:25:39;10.13;;;3.80;;
72301;SDS011;73902;52.234;5.186;2024-02-26T09:28:05;9.60;;;4.30;;
72301;SDS011;73902;52.234;5.186;2024-02-26T09:30:31;11.00;;;4.30;;
72301;SDS011;73902;52.234;5.186;2024-02-26T09:32:57;10.80;;;4.03;;
72301;SDS011;73902;52.234;5.186;2024-02-26T09:35:24;10.55;;;4.45;;
72301;SDS011;73902;52.234;5.186;2024-02-26T09:37:51;11.07;;;4.50;;
72301;SDS011;73902;52.234;5.186;2024-02-26T09:40:17;10.80;;;4.15;;
72301;SDS011;73902;52.234;5.186;2024-02-26T09:42:44;11.77;;;4.30;;
72301;SDS011;73902;52.234;5.186;2024-02-26T09:45:21;10.10;;;4.50;;
72301;SDS011;73902;52.234;5.186;2024-02-26T09:47:47;9.57;;;3.55;;
72301;SDS011;73902;52.234;5.186;2024-02-26T09:50:16;9.27;;;3.63;;
72301;SDS011;73902;52.234;5.186;2024-02-26T09:52:43;9.57;;;3.85;;
72301;SDS011;73902;52.234;5.186;2024-02-26T09:55:09;10.50;;;4.05;;
72301;SDS011;73902;52.234;5.186;2024-02-26T09:57:38;10.45;;;4.00;;
72301;SDS011;73902;52.234;5.186;2024-02-26T10:00:08;10.23;;;3.63;;
72301;SDS011;73902;52.234;5.186;2024-02-26T10:02:37;9.65;;;3.60;;
72301;SDS011;73902;52.234;5.186;2024-02-26T10:05:04;10.45;;;4.07;;
72301;SDS011;73902;52.234;5.186;2024-02-26T10:07:30;9.77;;;3.85;;
72301;SDS011;73902;52.234;5.186;2024-02-26T10:09:57;11.25;;;3.78;;
72301;SDS011;73902;52.234;5.186;2024-02-26T10:12:23;8.73;;;3.35;;
72301;SDS011;73902;52.234;5.186;2024-02-26T10:14:51;9.90;;;3.97;;
72301;SDS011;73902;52.234;5.186;2024-02-26T10:17:17;11.23;;;4.32;;
72301;SDS011;73902;52.234;5.186;2024-02-26T10:19:44;10.73;;;3.97;;
72301;SDS011;73902;52.234;5.186;2024-02-26T10:22:10;9.95;;;3.33;;
72301;SDS011;73902;52.234;5.186;2024-02-26T10:24:36;10.20;;;3.67;;
72301;SDS011;73902;52.234;5.186;2024-02-26T10:27:02;12.93;;;4.85;;
72301;SDS011;73902;52.234;5.186;2024-02-26T10:29:29;9.82;;;4.15;;
72301;SDS011;73902;52.234;5.186;2024-02-26T10:31:55;10.63;;;3.85;;
72301;SDS011;73902;52.234;5.186;2024-02-26T10:34:21;10.35;;;3.90;;
72301;SDS011;73902;52.234;5.186;2024-02-26T10:36:48;9.55;;;4.03;;
72301;SDS011;73902;52.234;5.186;2024-02-26T10:39:14;10.18;;;3.72;;
72301;SDS011;73902;52.234;5.186;2024-02-26T10:41:41;10.32;;;4.47;;
72301;SDS011;73902;52.234;5.186;2024-02-26T10:44:10;10.05;;;3.70;;
72301;SDS011;73902;52.234;5.186;2024-02-26T10:46:37;10.18;;;4.05;;
72301;SDS011;73902;52.234;5.186;2024-02-26T10:49:03;9.93;;;3.60;;
72301;SDS011;73902;52.234;5.186;2024-02-26T10:51:31;12.15;;;4.15;;
72301;SDS011;73902;52.234;5.186;2024-02-26T10:53:59;8.48;;;3.30;;
72301;SDS011;73902;52.234;5.186;2024-02-26T10:56:27;11.55;;;4.50;;
72301;SDS011;73902;52.234;5.186;2024-02-26T10:58:54;10.00;;;3.70;;
72301;SDS011;73902;52.234;5.186;2024-02-26T11:01:21;11.25;;;4.35;;
72301;SDS011;73902;52.234;5.186;2024-02-26T11:03:49;9.88;;;4.07;;
72301;SDS011;73902;52.234;5.186;2024-02-26T11:06:16;10.52;;;4.50;;
72301;SDS011;73902;52.234;5.186;2024-02-26T11:08:43;12.05;;;4.40;;
72301;SDS011;73902;52.234;5.186;2024-02-26T11:11:09;10.57;;;4.40;;
72301;SDS011;73902;52.234;5.186;2024-02-26T11:13:38;10.43;;;3.95;;
72301;SDS011;73902;52.234;5.186;2024-02-26T11:16:05;9.60;;;4.28;;
72301;SDS011;73902;52.234;5.186;2024-02-26T11:18:32;11.15;;;4.53;;
72301;SDS011;73902;52.234;5.186;2024-02-26T11:20:59;11.77;;;3.80;;
72301;SDS011;73902;52.234;5.186;2024-02-26T11:23:27;9.57;;;3.83;;
72301;SDS011;73902;52.234;5.186;2024-02-26T11:25:53;9.68;;;3.92;;
72301;SDS011;73902;52.234;5.186;2024-02-26T11:28:21;10.25;;;3.70;;
72301;SDS011;73902;52.234;5.186;2024-02-26T11:30:48;10.68;;;4.07;;
72301;SDS011;73902;52.234;5.186;2024-02-26T11:33:15;10.35;;;4.50;;
72301;SDS011;73902;52.234;5.186;2024-02-26T11:35:41;9.13;;;3.40;;
72301;SDS011;73902;52.234;5.186;2024-02-26T11:38:07;9.50;;;3.67;;
72301;SDS011;73902;52.234;5.186;2024-02-26T11:40:33;9.38;;;3.88;;
72301;SDS011;73902;52.234;5.186;2024-02-26T11:43:07;9.73;;;3.63;;
72301;SDS011;73902;52.234;5.186;2024-02-26T11:48:11;9.18;;;3.58;;
72301;SDS011;73902;52.234;5.186;2024-02-26T11:50:47;9.75;;;3.72;;
72301;SDS011;73902;52.234;5.186;2024-02-26T11:53:20;8.68;;;2.60;;
72301;SDS011;73902;52.234;5.186;2024-02-26T11:55:46;10.25;;;3.45;;
72301;SDS011;73902;52.234;5.186;2024-02-26T11:58:12;9.90;;;4.28;;
72301;SDS011;73902;52.234;5.186;2024-02-26T12:00:42;9.43;;;3.28;;
72301;SDS011;73902;52.234;5.186;2024-02-26T12:03:08;10.40;;;4.15;;
72301;SDS011;73902;52.234;5.186;2024-02-26T12:05:36;9.23;;;3.55;;
72301;SDS011;73902;52.234;5.186;2024-02-26T12:08:04;9.63;;;3.65;;
72301;SDS011;73902;52.234;5.186;2024-02-26T12:10:34;8.23;;;3.28;;
72301;SDS011;73902;52.234;5.186;2024-02-26T12:13:13;10.00;;;3.70;;
72301;SDS011;73902;52.234;5.186;2024-02-26T12:15:39;8.45;;;2.97;;
72301;SDS011;73902;52.234;5.186;2024-02-26T12:18:07;8.35;;;3.20;;
72301;SDS011;73902;52.234;5.186;2024-02-26T12:20:35;10.57;;;3.80;;
72301;SDS011;73902;52.234;5.186;2024-02-26T12:23:01;9.18;;;3.33;;
72301;SDS011;73902;52.234;5.186;2024-02-26T12:25:29;7.68;;;2.97;;
72301;SDS011;73902;52.234;5.186;2024-02-26T12:27:56;8.35;;;3.00;;
72301;SDS011;73902;52.234;5.186;2024-02-26T12:30:22;8.48;;;3.58;;
72301;SDS011;73902;52.234;5.186;2024-02-26T12:32:49;7.88;;;3.13;;
72301;SDS011;73902;52.234;5.186;2024-02-26T12:35:15;8.43;;;3.72;;
72301;SDS011;73902;52.234;5.186;2024-02-26T12:37:42;8.75;;;3.05;;
72301;SDS011;73902;52.234;5.186;2024-02-26T12:40:09;8.93;;;3.55;;
72301;SDS011;73902;52.234;5.186;2024-02-26T12:42:36;8.88;;;3.33;;
72301;SDS011;73902;52.234;5.186;2024-02-26T12:45:09;8.18;;;3.13;;
72301;SDS011;73902;52.234;5.186;2024-02-26T12:47:38;11.18;;;3.50;;
72301;SDS011;73902;52.234;5.186;2024-02-26T12:50:04;8.63;;;3.47;;
72301;SDS011;73902;52.234;5.186;2024-02-26T12:52:34;8.38;;;3.03;;
72301;SDS011;73902;52.234;5.186;2024-02-26T12:55:01;9.40;;;3.55;;
72301;SDS011;73902;52.234;5.186;2024-02-26T12:57:31;7.72;;;3.10;;
72301;SDS011;73902;52.234;5.186;2024-02-26T12:59:58;11.38;;;3.35;;
72301;SDS011;73902;52.234;5.186;2024-02-26T13:02:25;10.13;;;3.17;;
72301;SDS011;73902;52.234;5.186;2024-02-26T13:04:51;9.10;;;3.42;;
72301;SDS011;73902;52.234;5.186;2024-02-26T13:07:18;9.20;;;3.97;;
72301;SDS011;73902;52.234;5.186;2024-02-26T13:09:44;8.48;;;3.10;;
72301;SDS011;73902;52.234;5.186;2024-02-26T13:12:10;7.88;;;2.88;;
72301;SDS011;73902;52.234;5.186;2024-02-26T13:14:38;8.40;;;3.03;;
72301;SDS011;73902;52.234;5.186;2024-02-26T13:17:04;7.35;;;2.95;;
72301;SDS011;73902;52.234;5.186;2024-02-26T13:19:30;7.38;;;3.10;;
72301;SDS011;73902;52.234;5.186;2024-02-26T13:22:03;10.43;;;3.20;;
72301;SDS011;73902;52.234;5.186;2024-02-26T13:24:29;6.80;;;2.65;;
72301;SDS011;73902;52.234;5.186;2024-02-26T13:26:56;6.85;;;2.83;;
72301;SDS011;73902;52.234;5.186;2024-02-26T13:29:22;8.68;;;2.67;;
72301;SDS011;73902;52.234;5.186;2024-02-26T13:31:59;7.82;;;3.03;;
72301;SDS011;73902;52.234;5.186;2024-02-26T13:34:26;6.43;;;2.45;;
72301;SDS011;73902;52.234;5.186;2024-02-26T13:36:52;6.82;;;2.53;;
72301;SDS011;73902;52.234;5.186;2024-02-26T13:39:26;7.30;;;2.72;;
72301;SDS011;73902;52.234;5.186;2024-02-26T13:41:52;7.38;;;3.03;;
72301;SDS011;73902;52.234;5.186;2024-02-26T13:44:19;7.15;;;2.72;;
72301;SDS011;73902;52.234;5.186;2024-02-26T13:46:45;7.07;;;3.20;;
72301;SDS011;73902;52.234;5.186;2024-02-26T13:49:11;6.90;;;2.75;;
72301;SDS011;73902;52.234;5.186;2024-02-26T13:51:38;7.10;;;2.83;;
72301;SDS011;73902;52.234;5.186;2024-02-26T13:54:04;10.55;;;2.47;;
72301;SDS011;73902;52.234;5.186;2024-02-26T13:56:31;8.45;;;2.72;;
72301;SDS011;73902;52.234;5.186;2024-02-26T13:58:58;7.30;;;2.95;;
72301;SDS011;73902;52.234;5.186;2024-02-26T14:01:24;8.90;;;2.78;;
72301;SDS011;73902;52.234;5.186;2024-02-26T14:03:51;7.47;;;2.80;;
72301;SDS011;73902;52.234;5.186;2024-02-26T14:06:20;6.82;;;2.83;;
72301;SDS011;73902;52.234;5.186;2024-02-26T14:08:46;6.97;;;2.50;;
72301;SDS011;73902;52.234;5.186;2024-02-26T14:11:12;6.63;;;2.42;;
72301;SDS011;73902;52.234;5.186;2024-02-26T14:13:38;6.43;;;2.22;;
72301;SDS011;73902;52.234;5.186;2024-02-26T14:16:04;6.70;;;2.35;;
72301;SDS011;73902;52.234;5.186;2024-02-26T14:18:30;6.90;;;2.60;;
72301;SDS011;73902;52.234;5.186;2024-02-26T14:20:56;6.40;;;2.20;;
72301;SDS011;73902;52.234;5.186;2024-02-26T14:23:22;7.85;;;2.25;;
72301;SDS011;73902;52.234;5.186;2024-02-26T14:25:48;6.57;;;2.17;;
72301;SDS011;73902;52.234;5.186;2024-02-26T14:28:14;6.35;;;2.15;;
72301;SDS011;73902;52.234;5.186;2024-02-26T14:30:40;6.07;;;2.10;;
72301;SDS011;73902;52.234;5.186;2024-02-26T14:33:06;6.35;;;2.30;;
72301;SDS011;73902;52.234;5.186;2024-02-26T14:35:34;8.35;;;2.35;;
72301;SDS011;73902;52.234;5.186;2024-02-26T14:38:00;5.60;;;2.10;;